createdAt,value
2017-09-16T00:00:20.644Z,8.50
2017-09-16T00:02:46.994Z,8.50
2017-09-16T00:05:13.167Z,13.07
2017-09-16T00:07:39.375Z,7.37
2017-09-16T00:10:05.559Z,8.10
2017-09-16T00:12:31.740Z,8.93
2017-09-16T00:14:58.606Z,10.20
2017-09-16T00:17:24.776Z,11.03
2017-09-16T00:19:50.911Z,10.80
2017-09-16T00:22:18.127Z,6.83
2017-09-16T00:24:44.279Z,11.40
2017-09-16T00:27:10.412Z,13.90
2017-09-16T00:29:36.534Z,10.63
2017-09-16T00:32:02.695Z,9.93
2017-09-16T00:34:28.835Z,6.83
2017-09-16T00:36:55.042Z,7.63
2017-09-16T00:39:21.926Z,7.23
2017-09-16T00:41:48.086Z,10.03
2017-09-16T00:44:14.222Z,7.73
2017-09-16T00:46:40.362Z,6.43
2017-09-16T00:49:06.511Z,6.77
2017-09-16T00:51:32.713Z,9.57
2017-09-16T00:53:58.895Z,12.97
2017-09-16T00:56:25.799Z,13.70
2017-09-16T00:58:51.967Z,15.30
2017-09-16T01:01:18.106Z,10.43
2017-09-16T01:03:44.302Z,8.03
2017-09-16T01:06:10.455Z,10.90
2017-09-16T01:08:36.586Z,10.97
2017-09-16T01:11:02.782Z,6.20
2017-09-16T01:13:28.954Z,7.53
2017-09-16T01:15:55.109Z,8.03
2017-09-16T01:18:21.246Z,10.57
2017-09-16T01:20:48.146Z,7.00
2017-09-16T01:23:14.502Z,12.67
2017-09-16T01:25:40.673Z,8.90
2017-09-16T01:28:06.807Z,23.40
2017-09-16T01:30:33.723Z,15.27
2017-09-16T01:32:59.883Z,6.87
2017-09-16T01:35:26.034Z,8.10
2017-09-16T01:37:52.211Z,9.87
2017-09-16T01:40:18.424Z,8.30
2017-09-16T01:42:44.590Z,12.30
2017-09-16T01:45:10.740Z,13.13
2017-09-16T01:47:36.905Z,22.50
2017-09-16T01:50:03.026Z,10.00
2017-09-16T01:52:29.238Z,15.90
2017-09-16T01:54:56.135Z,7.33
2017-09-16T01:57:22.558Z,11.00
2017-09-16T01:59:48.720Z,12.83
2017-09-16T02:02:14.884Z,11.40
2017-09-16T02:04:41.018Z,9.33
2017-09-16T02:07:07.484Z,6.53
2017-09-16T02:09:33.807Z,7.87
2017-09-16T02:11:59.959Z,8.70
2017-09-16T02:14:26.183Z,11.23
2017-09-16T02:16:52.336Z,12.40
2017-09-16T02:19:19.735Z,23.23
2017-09-16T02:21:46.886Z,9.93
2017-09-16T02:24:13.217Z,9.37
2017-09-16T02:26:39.366Z,11.57
2017-09-16T02:29:05.561Z,8.60
2017-09-16T02:31:31.679Z,11.40
2017-09-16T02:33:57.893Z,8.43
2017-09-16T02:36:24.055Z,14.73
2017-09-16T02:38:50.927Z,13.03
2017-09-16T02:41:17.083Z,9.87
2017-09-16T02:43:43.977Z,11.10
2017-09-16T02:46:10.244Z,12.27
2017-09-16T02:48:37.218Z,13.80
2017-09-16T02:51:03.506Z,11.80
2017-09-16T02:53:29.635Z,8.80
2017-09-16T02:55:55.783Z,13.10
2017-09-16T02:58:22.258Z,8.77
2017-09-16T03:00:48.403Z,11.83
2017-09-16T03:03:23.414Z,16.93
2017-09-16T03:05:49.656Z,11.47
2017-09-16T03:08:21.765Z,10.60
2017-09-16T03:10:48.015Z,7.87
2017-09-16T03:13:14.229Z,11.07
2017-09-16T03:15:40.397Z,11.00
2017-09-16T03:18:06.542Z,13.30
2017-09-16T03:20:32.685Z,12.40
2017-09-16T03:23:02.924Z,10.67
2017-09-16T03:28:19.515Z,11.77
2017-09-16T03:30:45.713Z,14.80
2017-09-16T03:33:12.225Z,15.27
2017-09-16T03:35:38.421Z,17.43
2017-09-16T03:38:05.334Z,12.87
2017-09-16T03:40:31.524Z,11.50
2017-09-16T03:42:57.689Z,21.27
2017-09-16T03:45:23.838Z,10.73
2017-09-16T03:50:43.666Z,12.23
2017-09-16T03:53:09.790Z,12.43
2017-09-16T03:55:35.938Z,11.87
2017-09-16T03:58:02.062Z,13.13
2017-09-16T04:00:28.237Z,29.13
2017-09-16T04:02:54.362Z,12.13
2017-09-16T04:05:20.498Z,12.93
2017-09-16T04:07:46.614Z,15.50
2017-09-16T04:10:12.774Z,14.63
2017-09-16T04:12:38.922Z,18.80
2017-09-16T04:15:05.078Z,24.40
2017-09-16T04:17:31.971Z,28.07
2017-09-16T04:19:58.126Z,21.60
2017-09-16T04:22:24.283Z,26.13
2017-09-16T04:24:50.433Z,15.40
2017-09-16T04:27:17.516Z,22.27
2017-09-16T04:32:23.070Z,24.03
2017-09-16T04:34:54.031Z,28.53
2017-09-16T04:37:20.183Z,21.63
2017-09-16T04:39:46.339Z,48.93
2017-09-16T04:42:13.261Z,55.77
2017-09-16T04:44:39.411Z,49.60
2017-09-16T04:47:05.595Z,62.63
2017-09-16T04:49:32.495Z,169.63
2017-09-16T04:51:58.650Z,160.73
2017-09-16T04:57:19.529Z,75.90
2017-09-16T04:59:46.386Z,82.10
2017-09-16T05:02:12.539Z,32.23
2017-09-16T05:04:38.689Z,109.17
2017-09-16T05:07:05.569Z,100.67
2017-09-16T05:09:31.730Z,79.87
2017-09-16T05:11:57.894Z,123.17
2017-09-16T05:14:24.019Z,168.90
2017-09-16T05:16:50.155Z,156.57
2017-09-16T05:19:17.040Z,150.40
2017-09-16T05:21:43.175Z,97.63
2017-09-16T05:24:09.358Z,147.23
2017-09-16T05:26:35.503Z,119.13
2017-09-16T05:29:01.869Z,96.63
2017-09-16T05:31:29.278Z,69.67
2017-09-16T05:33:56.149Z,103.10
2017-09-16T05:36:22.307Z,44.90
2017-09-16T05:38:48.466Z,31.70
2017-09-16T05:41:14.588Z,33.43
2017-09-16T05:43:40.746Z,31.90
2017-09-16T05:46:07.636Z,67.70
2017-09-16T05:48:33.769Z,31.07
2017-09-16T05:50:59.915Z,68.30
2017-09-16T05:53:26.063Z,138.20
2017-09-16T05:55:52.240Z,36.87
2017-09-16T05:58:18.430Z,65.60
2017-09-16T06:00:44.571Z,50.97
2017-09-16T06:03:10.712Z,91.97
2017-09-16T06:05:36.880Z,50.90
2017-09-16T06:08:03.752Z,35.67
2017-09-16T06:10:29.916Z,35.70
2017-09-16T06:12:56.853Z,48.93
2017-09-16T06:15:23.723Z,36.27
2017-09-16T06:17:49.882Z,42.53
2017-09-16T06:20:16.750Z,28.37
2017-09-16T06:22:42.890Z,29.33
2017-09-16T06:25:09.018Z,40.43
2017-09-16T06:27:35.171Z,41.20
2017-09-16T06:30:01.423Z,56.77
2017-09-16T06:32:27.655Z,110.47
2017-09-16T06:34:53.818Z,39.43
2017-09-16T06:37:20.026Z,59.80
2017-09-16T06:39:46.186Z,52.97
2017-09-16T06:42:12.387Z,46.20
2017-09-16T06:44:38.539Z,64.20
2017-09-16T06:47:04.686Z,48.97
2017-09-16T06:49:30.832Z,31.10
2017-09-16T06:51:56.983Z,32.07
2017-09-16T06:54:23.139Z,39.53
2017-09-16T06:56:49.267Z,35.93
2017-09-16T06:59:15.410Z,38.17
2017-09-16T07:01:42.270Z,44.47
2017-09-16T07:04:08.420Z,41.13
2017-09-16T07:06:34.599Z,20.23
2017-09-16T07:09:00.834Z,25.67
2017-09-16T07:11:26.998Z,22.77
2017-09-16T07:13:53.147Z,23.30
2017-09-16T07:16:19.282Z,23.03
2017-09-16T07:18:45.441Z,23.53
2017-09-16T07:21:11.580Z,29.30
2017-09-16T07:23:37.702Z,26.67
2017-09-16T07:26:03.847Z,30.10
2017-09-16T07:28:29.979Z,34.70
2017-09-16T07:30:56.150Z,29.60
2017-09-16T07:33:22.283Z,34.80
2017-09-16T07:35:48.485Z,50.40
2017-09-16T07:38:14.630Z,29.13
2017-09-16T07:40:40.939Z,34.77
2017-09-16T07:43:07.224Z,30.93
2017-09-16T07:45:34.091Z,29.87
2017-09-16T07:48:00.226Z,30.80
2017-09-16T07:50:26.367Z,47.73
2017-09-16T07:52:52.538Z,31.73
2017-09-16T07:55:18.658Z,31.73
2017-09-16T07:57:44.809Z,35.00
2017-09-16T08:00:10.928Z,33.40
2017-09-16T08:02:37.823Z,35.53
2017-09-16T08:05:03.986Z,32.63
2017-09-16T08:07:30.148Z,38.03
2017-09-16T08:09:56.293Z,32.20
2017-09-16T08:12:23.223Z,33.23
2017-09-16T08:14:49.363Z,36.30
2017-09-16T08:17:15.507Z,31.13
2017-09-16T08:19:41.979Z,41.43
2017-09-16T08:22:08.164Z,33.47
2017-09-16T08:24:34.407Z,34.57
2017-09-16T08:27:00.544Z,35.53
2017-09-16T08:29:26.735Z,40.47
2017-09-16T08:31:52.899Z,36.90
2017-09-16T08:34:19.117Z,34.37
2017-09-16T08:36:45.309Z,34.87
2017-09-16T08:39:11.502Z,31.37
2017-09-16T08:41:37.635Z,25.20
2017-09-16T08:44:03.794Z,32.27
2017-09-16T08:46:29.943Z,34.53
2017-09-16T08:48:56.102Z,31.93
2017-09-16T08:51:22.274Z,30.40
2017-09-16T08:53:48.435Z,31.30
2017-09-16T08:56:14.597Z,26.53
2017-09-16T08:58:40.749Z,29.97
2017-09-16T09:01:06.919Z,23.60
2017-09-16T09:03:33.045Z,28.77
2017-09-16T09:05:59.226Z,28.00
2017-09-16T09:08:25.385Z,25.80
2017-09-16T09:10:51.575Z,27.83
2017-09-16T09:13:17.754Z,19.67
2017-09-16T09:15:43.967Z,22.70
2017-09-16T09:18:10.172Z,23.40
2017-09-16T09:20:36.331Z,19.83
2017-09-16T09:23:02.513Z,17.90
2017-09-16T09:25:28.652Z,26.97
2017-09-16T09:27:54.782Z,17.63
2017-09-16T09:30:20.957Z,20.53
2017-09-16T09:32:47.117Z,16.53
2017-09-16T09:35:13.262Z,15.40
2017-09-16T09:37:39.397Z,16.53
2017-09-16T09:40:05.539Z,21.50
2017-09-16T09:42:31.664Z,18.90
2017-09-16T09:44:57.794Z,12.43
2017-09-16T09:47:24.674Z,17.67
2017-09-16T09:49:50.795Z,13.97
2017-09-16T09:52:16.979Z,16.73
2017-09-16T09:54:43.109Z,12.23
2017-09-16T09:57:09.242Z,12.90
2017-09-16T09:59:35.359Z,9.40
2017-09-16T10:02:01.567Z,11.80
2017-09-16T10:04:27.924Z,15.30
2017-09-16T10:06:54.108Z,21.77
2017-09-16T10:09:20.267Z,8.47
2017-09-16T10:11:46.413Z,10.70
2017-09-16T10:14:12.595Z,12.43
2017-09-16T10:16:38.747Z,9.30
2017-09-16T10:19:04.981Z,10.87
2017-09-16T10:21:31.867Z,9.00
2017-09-16T10:23:58.016Z,7.57
2017-09-16T10:26:24.934Z,6.97
2017-09-16T10:28:51.152Z,5.53
2017-09-16T10:31:18.050Z,10.30
2017-09-16T10:33:44.189Z,7.50
2017-09-16T10:36:10.346Z,7.00
2017-09-16T10:38:36.529Z,9.67
2017-09-16T10:41:02.719Z,6.73
2017-09-16T10:43:28.867Z,6.67
2017-09-16T10:45:55.791Z,6.37
2017-09-16T10:48:22.676Z,7.27
2017-09-16T10:50:48.794Z,5.17
2017-09-16T10:53:14.941Z,5.63
2017-09-16T10:55:41.817Z,6.23
2017-09-16T10:58:08.019Z,6.53
2017-09-16T11:00:34.145Z,3.13
2017-09-16T11:03:00.309Z,3.70
2017-09-16T11:05:26.475Z,3.50
2017-09-16T11:07:52.610Z,4.63
2017-09-16T11:10:18.759Z,5.87
2017-09-16T11:12:44.966Z,4.60
2017-09-16T11:15:11.146Z,3.57
2017-09-16T11:17:37.339Z,3.60
2017-09-16T11:20:03.468Z,7.20
2017-09-16T11:22:29.614Z,5.17
2017-09-16T11:24:55.758Z,2.13
2017-09-16T11:27:21.951Z,3.23
2017-09-16T11:29:48.083Z,3.43
2017-09-16T11:32:14.237Z,4.17
2017-09-16T11:34:41.098Z,4.60
2017-09-16T11:37:07.242Z,2.73
2017-09-16T11:39:33.381Z,2.30
2017-09-16T11:41:59.539Z,7.67
2017-09-16T11:44:25.676Z,5.30
2017-09-16T11:46:51.799Z,6.47
2017-09-16T11:49:17.961Z,2.40
2017-09-16T11:51:44.115Z,3.40
2017-09-16T11:54:10.263Z,5.67
2017-09-16T11:56:37.130Z,4.00
2017-09-16T11:59:03.284Z,3.07
2017-09-16T12:01:29.418Z,8.53
2017-09-16T12:03:55.560Z,2.30
2017-09-16T12:06:21.704Z,4.20
2017-09-16T12:08:47.902Z,3.80
2017-09-16T12:11:14.060Z,3.10
2017-09-16T12:13:40.971Z,5.73
2017-09-16T12:16:07.145Z,4.60
2017-09-16T12:18:33.327Z,2.50
2017-09-16T12:20:59.483Z,1.70
2017-09-16T12:23:25.680Z,3.27
2017-09-16T12:25:51.790Z,6.63
2017-09-16T12:28:17.970Z,1.90
2017-09-16T12:30:44.837Z,10.83
2017-09-16T12:33:10.970Z,3.47
2017-09-16T12:35:37.100Z,4.10
2017-09-16T12:38:03.323Z,3.60
2017-09-16T12:40:30.200Z,3.87
2017-09-16T12:42:56.436Z,2.50
2017-09-16T12:45:22.642Z,8.60
2017-09-16T12:47:49.599Z,2.40
2017-09-16T12:50:15.773Z,1.70
2017-09-16T12:52:41.896Z,4.00
2017-09-16T12:55:08.120Z,2.70
2017-09-16T12:57:34.279Z,5.13
2017-09-16T13:00:00.481Z,7.37
2017-09-16T13:02:26.640Z,4.57
2017-09-16T13:04:52.782Z,1.60
2017-09-16T13:07:18.925Z,3.43
2017-09-16T13:09:45.078Z,3.20
2017-09-16T13:12:11.233Z,3.30
2017-09-16T13:14:37.397Z,3.83
2017-09-16T13:17:03.579Z,2.57
2017-09-16T13:19:29.752Z,1.97
2017-09-16T13:21:56.647Z,2.23
2017-09-16T13:24:22.787Z,1.90
2017-09-16T13:26:49.008Z,6.13
2017-09-16T13:29:15.107Z,5.77
2017-09-16T13:31:41.283Z,5.87
2017-09-16T13:34:07.436Z,3.80
2017-09-16T13:36:33.687Z,3.03
2017-09-16T13:39:00.010Z,4.00
2017-09-16T13:41:26.200Z,4.60
2017-09-16T13:43:53.104Z,3.17
2017-09-16T13:46:19.267Z,2.80
2017-09-16T13:48:45.408Z,2.53
2017-09-16T13:51:11.599Z,2.50
2017-09-16T13:53:37.734Z,2.23
2017-09-16T13:56:03.915Z,10.10
2017-09-16T13:58:30.119Z,1.10
2017-09-16T14:00:57.005Z,3.00
2017-09-16T14:03:23.164Z,3.00
2017-09-16T14:05:49.300Z,1.10
2017-09-16T14:08:15.465Z,3.13
2017-09-16T14:10:42.360Z,3.90
2017-09-16T14:13:08.557Z,1.80
2017-09-16T14:15:34.691Z,16.83
2017-09-16T14:18:00.850Z,2.33
2017-09-16T14:20:27.071Z,2.37
2017-09-16T14:22:53.252Z,3.67
2017-09-16T14:25:20.366Z,2.10
2017-09-16T14:27:46.634Z,3.07
2017-09-16T14:30:12.804Z,3.93
2017-09-16T14:32:38.959Z,1.40
2017-09-16T14:35:05.116Z,2.40
2017-09-16T14:37:31.272Z,3.13
2017-09-16T14:39:57.449Z,4.00
2017-09-16T14:42:23.623Z,2.13
2017-09-16T14:44:50.027Z,5.60
2017-09-16T14:47:16.190Z,4.80
2017-09-16T14:49:42.347Z,4.87
2017-09-16T14:52:08.771Z,5.70
2017-09-16T14:54:34.978Z,7.53
2017-09-16T14:57:01.119Z,3.63
2017-09-16T14:59:27.314Z,1.57
2017-09-16T15:01:53.480Z,2.50
2017-09-16T15:04:20.786Z,3.50
2017-09-16T15:06:48.102Z,2.70
2017-09-16T15:09:14.539Z,4.77
2017-09-16T15:11:43.454Z,2.57
2017-09-16T15:14:09.976Z,2.13
2017-09-16T15:16:36.114Z,4.70
2017-09-16T15:19:02.318Z,1.40
2017-09-16T15:21:28.605Z,2.50
2017-09-16T15:23:54.756Z,2.60
2017-09-16T15:26:20.922Z,2.60
2017-09-16T15:28:47.055Z,2.03
2017-09-16T15:31:13.984Z,1.60
2017-09-16T15:33:40.144Z,5.63
2017-09-16T15:36:06.336Z,4.10
2017-09-16T15:38:32.529Z,66.03
2017-09-16T15:40:59.435Z,33.70
2017-09-16T15:43:25.661Z,9.07
2017-09-16T15:45:51.976Z,27.23
2017-09-16T15:48:18.159Z,11.17
2017-09-16T15:50:44.349Z,9.27
2017-09-16T15:53:10.532Z,12.80
2017-09-16T15:55:37.517Z,11.53
2017-09-16T15:58:03.768Z,18.83
2017-09-16T16:00:29.897Z,16.87
2017-09-16T16:02:56.088Z,57.10
2017-09-16T16:05:23.078Z,12.00
2017-09-16T16:07:49.371Z,55.80
2017-09-16T16:10:16.239Z,101.33
2017-09-16T16:12:42.416Z,171.37
2017-09-16T16:15:09.339Z,5.03
2017-09-16T16:17:35.495Z,6.27
2017-09-16T16:20:01.656Z,25.63
2017-09-16T16:22:27.799Z,9.23
2017-09-16T16:24:53.964Z,4.87
2017-09-16T16:27:20.127Z,6.77
2017-09-16T16:29:46.328Z,3.30
2017-09-16T16:32:12.457Z,7.10
2017-09-16T16:34:38.611Z,15.53
2017-09-16T16:37:04.755Z,6.47
2017-09-16T16:39:30.974Z,8.10
2017-09-16T16:41:57.119Z,15.37
2017-09-16T16:44:23.359Z,12.03
2017-09-16T16:46:49.549Z,9.13
2017-09-16T16:49:15.704Z,5.70
2017-09-16T16:51:41.871Z,7.37
2017-09-16T16:54:08.019Z,13.30
2017-09-16T16:56:34.266Z,9.57
2017-09-16T16:59:00.459Z,11.13
2017-09-16T17:01:26.631Z,10.37
2017-09-16T17:03:52.767Z,4.30
2017-09-16T17:06:18.935Z,22.83
2017-09-16T17:08:45.173Z,9.77
2017-09-16T17:11:11.325Z,6.00
2017-09-16T17:13:37.479Z,4.43
2017-09-16T17:16:03.667Z,5.23
2017-09-16T17:18:29.786Z,17.90
2017-09-16T17:20:56.134Z,10.60
2017-09-16T17:23:22.364Z,12.40
2017-09-16T17:25:48.512Z,15.47
2017-09-16T17:28:14.690Z,23.20
2017-09-16T17:30:40.840Z,18.47
2017-09-16T17:33:07.041Z,21.73
2017-09-16T17:35:33.183Z,22.67
2017-09-16T17:37:59.323Z,17.50
2017-09-16T17:40:26.214Z,13.00
2017-09-16T17:42:52.354Z,11.73
2017-09-16T17:45:19.234Z,10.97
2017-09-16T17:47:45.394Z,7.00
2017-09-16T17:50:12.246Z,8.60
2017-09-16T17:52:38.382Z,8.57
2017-09-16T17:55:04.552Z,4.37
2017-09-16T17:57:30.704Z,6.30
2017-09-16T17:59:56.875Z,4.70
2017-09-16T18:02:23.057Z,5.40
2017-09-16T18:04:49.239Z,4.13
2017-09-16T18:07:15.388Z,5.27
2017-09-16T18:09:41.552Z,7.17
2017-09-16T18:12:07.700Z,5.77
2017-09-16T18:14:33.897Z,3.60
2017-09-16T18:17:00.043Z,6.90
2017-09-16T18:19:26.216Z,6.37
2017-09-16T18:21:52.387Z,7.00
2017-09-16T18:24:18.555Z,8.83
2017-09-16T18:26:44.727Z,3.67
2017-09-16T18:29:10.880Z,4.67
2017-09-16T18:31:37.027Z,4.33
2017-09-16T18:34:03.922Z,3.10
2017-09-16T18:36:30.090Z,8.27
2017-09-16T18:38:56.219Z,3.93
2017-09-16T18:41:22.391Z,5.50
2017-09-16T18:43:49.281Z,8.30
2017-09-16T18:46:15.472Z,4.47
2017-09-16T18:48:41.603Z,6.87
2017-09-16T18:51:07.727Z,18.70
2017-09-16T18:53:33.923Z,5.83
2017-09-16T18:56:00.080Z,7.50
2017-09-16T18:58:27.003Z,16.77
2017-09-16T19:00:53.228Z,20.87
2017-09-16T19:03:19.384Z,7.10
2017-09-16T19:05:45.512Z,6.83
2017-09-16T19:08:11.673Z,8.80
2017-09-16T19:10:37.815Z,9.60
2017-09-16T19:13:03.975Z,4.00
2017-09-16T19:15:30.123Z,13.57
2017-09-16T19:17:56.272Z,19.10
2017-09-16T19:20:22.394Z,22.90
2017-09-16T19:22:48.530Z,17.13
2017-09-16T19:25:14.681Z,22.10
2017-09-16T19:27:40.821Z,12.80
2017-09-16T19:30:06.962Z,18.60
2017-09-16T19:32:33.836Z,15.57
2017-09-16T19:34:59.996Z,20.63
2017-09-16T19:37:26.906Z,14.40
2017-09-16T19:39:53.056Z,28.53
2017-09-16T19:42:19.921Z,23.43
2017-09-16T19:44:46.090Z,17.80
2017-09-16T19:47:12.995Z,18.50
2017-09-16T19:49:39.277Z,8.60
2017-09-16T19:52:05.419Z,12.10
2017-09-16T19:54:31.556Z,14.70
2017-09-16T19:56:58.471Z,19.23
2017-09-16T19:59:24.631Z,10.90
2017-09-16T20:01:50.845Z,11.80
2017-09-16T20:04:17.009Z,12.17
2017-09-16T20:06:43.160Z,20.50
2017-09-16T20:09:09.299Z,10.57
2017-09-16T20:11:35.478Z,10.00
2017-09-16T20:14:01.716Z,19.67
2017-09-16T20:16:27.888Z,9.80
2017-09-16T20:18:54.039Z,8.63
2017-09-16T20:21:20.232Z,16.17
2017-09-16T20:23:46.560Z,15.47
2017-09-16T20:26:12.718Z,13.43
2017-09-16T20:28:39.641Z,9.67
2017-09-16T20:31:05.797Z,14.23
2017-09-16T20:33:31.956Z,10.93
2017-09-16T20:35:58.147Z,10.33
2017-09-16T20:38:24.308Z,11.67
2017-09-16T20:40:51.215Z,16.57
2017-09-16T20:43:17.415Z,17.17
2017-09-16T20:45:43.571Z,17.90
2017-09-16T20:48:09.694Z,18.63
2017-09-16T20:50:35.876Z,14.83
2017-09-16T20:53:02.067Z,23.97
2017-09-16T20:55:28.263Z,11.53
2017-09-16T20:57:54.399Z,17.70
2017-09-16T21:00:20.606Z,11.83
2017-09-16T21:02:46.784Z,12.30
2017-09-16T21:05:13.164Z,16.13
2017-09-16T21:07:39.331Z,13.80
2017-09-16T21:10:05.545Z,9.20
2017-09-16T21:12:31.691Z,10.87
2017-09-16T21:14:58.069Z,15.00
2017-09-16T21:17:24.248Z,14.10
2017-09-16T21:19:50.451Z,13.97
2017-09-16T21:22:16.643Z,7.90
2017-09-16T21:24:42.842Z,10.67
2017-09-16T21:27:09.338Z,12.77
2017-09-16T21:29:35.496Z,15.60
2017-09-16T21:32:02.436Z,12.40
2017-09-16T21:34:28.616Z,13.60
2017-09-16T21:36:54.796Z,15.00
2017-09-16T21:39:20.963Z,15.00
2017-09-16T21:41:48.103Z,13.47
2017-09-16T21:44:14.284Z,13.40
2017-09-16T21:46:40.475Z,12.80
2017-09-16T21:49:06.620Z,13.07
2017-09-16T21:51:32.779Z,11.63
2017-09-16T21:53:59.011Z,11.60
2017-09-16T21:56:25.146Z,14.37
2017-09-16T21:58:51.328Z,10.73
2017-09-16T22:01:17.475Z,17.23
2017-09-16T22:03:43.643Z,9.53
2017-09-16T22:06:09.787Z,324.63
2017-09-16T22:08:35.936Z,25.53
2017-09-16T22:11:02.075Z,8.10
2017-09-16T22:13:28.231Z,9.43
2017-09-16T22:15:54.391Z,12.53
2017-09-16T22:18:20.539Z,11.60
2017-09-16T22:20:46.683Z,12.27
2017-09-16T22:23:13.639Z,10.70
2017-09-16T22:25:39.763Z,10.83
2017-09-16T22:28:05.990Z,9.77
2017-09-16T22:30:32.174Z,10.10
2017-09-16T22:32:58.365Z,9.77
2017-09-16T22:35:25.279Z,8.83
2017-09-16T22:37:51.472Z,7.13
2017-09-16T22:40:17.648Z,10.40
2017-09-16T22:42:43.812Z,8.43
2017-09-16T22:45:10.020Z,7.70
2017-09-16T22:47:36.176Z,10.50
2017-09-16T22:50:02.399Z,9.87
2017-09-16T22:52:28.599Z,12.73
2017-09-16T22:54:54.762Z,10.23
2017-09-16T22:57:20.919Z,7.17
2017-09-16T22:59:47.050Z,9.93
2017-09-16T23:02:13.997Z,10.17
2017-09-16T23:04:40.147Z,8.57
2017-09-16T23:07:06.343Z,8.40
2017-09-16T23:09:32.504Z,11.70
2017-09-16T23:11:58.663Z,9.33
2017-09-16T23:14:24.851Z,8.57
2017-09-16T23:16:51.032Z,10.27
2017-09-16T23:19:17.201Z,11.27
2017-09-16T23:21:43.390Z,9.53
2017-09-16T23:24:09.568Z,8.60
2017-09-16T23:26:35.761Z,10.50
2017-09-16T23:29:01.935Z,8.60
2017-09-16T23:31:28.101Z,12.20
2017-09-16T23:33:55.025Z,17.70
2017-09-16T23:36:21.903Z,9.93
2017-09-16T23:38:48.092Z,11.10
2017-09-16T23:41:14.267Z,14.30
2017-09-16T23:43:40.407Z,15.33
2017-09-16T23:46:06.568Z,19.30
2017-09-16T23:48:32.742Z,7.90
2017-09-16T23:50:58.923Z,13.30
2017-09-16T23:53:25.813Z,11.33
2017-09-16T23:55:51.939Z,9.13
2017-09-16T23:58:18.096Z,8.90
